Detalii statie PETRESTI PETRESTI [0000197D]

Toti senzorii

Date Temperatura solului [C]Precipitatii [mm]Voltaj baterie [mV]Leaf Wetness [Min]HC Air temperature [C]HC Relative humidity [%]Punctul de roua [C]
medieminmaxsumaultimatimpmedieminmaxmediemediemin
2019-10-19 23:00:00 0 6728 11.8 11.55 12.12 81.19 8.6 8.4
2019-10-20 00:00:00 0 6698 11.29 11.06 11.56 85.33 8.7 8.4
2019-10-20 01:00:00 0 6688 12.4 11.78 12.81 84.26 9.7 9.3
2019-10-20 02:00:00 0 6718 12.12 11.89 12.27 86.07 9.7 9.4
2019-10-20 03:00:00 0 6708 12.61 12.23 13.04 85.83 10.1 9.9
2019-10-20 04:00:00 0 6708 12.3 11.47 12.77 87.07 10 9.8
2019-10-20 05:00:00 0 6708 11.31 10.86 11.45 93.18 10.1 9.9
2019-10-20 06:00:00 0 6698 9.43 8.72 10.5 98.65 9.1 8.7
2019-10-20 07:00:00 0 6660 8.66 8.48 8.89 100 8.6 8.4
2019-10-20 08:00:00 0 6698 9.53 8.75 10.39 100 9.4 8.7
2019-10-20 09:00:00 0 6688 12.09 10.7 13.49 98.26 11.7 10.7
2019-10-20 10:00:00 0 6738 15.62 13.78 17.09 80.01 11.9 11.7
2019-10-20 11:00:00 0 6728 18.61 17.18 19.83 63.79 11.4 10.7
2019-10-20 12:00:00 0 6786 21.33 19.9 22.59 48.25 9.7 8.7
2019-10-20 13:00:00 0 6982 23.74 22.57 25.15 41.49 9.6 9.3
2019-10-20 14:00:00 0 7000 25.23 24.76 25.53 37.13 9.3 8.8
2019-10-20 15:00:00 0 6904 25.24 24.64 25.74 37.77 9.5 9.2
2019-10-20 16:00:00 0 7166 24.76 24.56 25.21 39.61 9.8 9.5
2019-10-20 17:00:00 0 6816 24.07 22.75 24.73 41.03 9.8 9.4
2019-10-20 18:00:00 0 6786 19.86 18.22 22.13 52.81 9.7 9.4
2019-10-20 19:00:00 0 6766 16.19 14.83 17.99 64.86 9.3 8.7
2019-10-20 20:00:00 0 6756 14.98 14.45 15.36 67.25 8.8 8.1
2019-10-20 21:00:00 0 6748 13.45 12.5 14.1 75.43 9 8
2019-10-20 22:00:00 0 6738 12.15 11.81 12.6 81.48 8.9 8.1
2019-10-20 23:00:00 0 6728 12.81 11.86 13.48 79.05 9.1 8.3
2019-10-21 00:00:00 0 6698 11.31 10.84 11.87 83.92 8.5 8.2
2019-10-21 01:00:00 0 6688 10.85 10.57 11.11 87.22 8.7 8.4
2019-10-21 02:00:00 0 6718 10.13 9.63 10.92 91.07 8.6 8.2
2019-10-21 03:00:00 0 6708 9.69 9.22 10.27 95.51 8.8 8.4
2019-10-21 04:00:00 0 6678 8.82 8.38 9.33 98.4 8.4 8
2019-10-21 05:00:00 0 6698 8.6 8.27 9.17 100 8.5 8.2
2019-10-21 06:00:00 0 6688 8.22 7.99 8.63 100 8.1 7.9
2019-10-21 07:00:00 0 6688 8.34 8.02 8.67 100 8.2 8
2019-10-21 08:00:00 0 6660 8.28 7.9 9.33 100 8.2 7.9
2019-10-21 09:00:00 0 6708 12.1 9.69 14.23 92.77 10.8 9.6
2019-10-21 10:00:00 0 6738 15.68 14.39 17.05 74.8 11 10.9
2019-10-21 11:00:00 0 6766 19.09 17.3 20.6 58.38 10.5 9.9
2019-10-21 12:00:00 0 6786 21.7 21.08 22.46 48.02 10 9.6
2019-10-21 13:00:00 0 6962 23.77 22.36 25.09 43.18 10.3 9.6
2019-10-21 14:00:00 0 7176 25.03 24.51 25.77 37.54 9.3 8.5
2019-10-21 15:00:00 0 6962 25.44 25.18 25.82 34.98 8.6 8.3
2019-10-21 16:00:00 0 7176 25.27 25.01 25.49 34.16 8.1 7.9
2019-10-21 17:00:00 0 6806 24.09 22.83 24.92 37.36 8.4 7.9
2019-10-21 18:00:00 0 6756 19.68 17.57 22.25 50.81 8.9 8.8
2019-10-21 19:00:00 0 6766 16.68 15.86 17.38 58.83 8.3 8
2019-10-21 20:00:00 0 6756 15.06 14.44 16.24 63.97 8.1 7.8
2019-10-21 21:00:00 0 6738 14.32 13.79 15.06 67.04 8.1 7.8